createdAt,value
2022-11-02T00:01:32.871Z,13.27
2022-11-02T00:03:59.305Z,18.73
2022-11-02T00:06:25.685Z,13.48
2022-11-02T00:08:52.019Z,18.17
2022-11-02T00:11:18.363Z,17.52
2022-11-02T00:13:44.818Z,16.65
2022-11-02T00:16:15.671Z,17.20
2022-11-02T00:18:44.775Z,21.33
2022-11-02T00:21:13.274Z,13.27
2022-11-02T00:23:41.463Z,9.13
2022-11-02T00:26:07.930Z,10.65
2022-11-02T00:28:34.519Z,16.88
2022-11-02T00:31:01.454Z,9.25
2022-11-02T00:33:27.887Z,16.75
2022-11-02T00:35:55.572Z,11.48
2022-11-02T00:38:21.927Z,10.45
2022-11-02T00:40:48.377Z,15.98
2022-11-02T00:43:15.559Z,12.65
2022-11-02T00:45:42.526Z,11.70
2022-11-02T00:48:09.407Z,11.90
2022-11-02T00:50:36.241Z,14.57
2022-11-02T00:53:03.263Z,10.00
2022-11-02T00:55:29.703Z,16.63
2022-11-02T00:58:02.909Z,14.35
2022-11-02T01:00:29.556Z,12.85
2022-11-02T01:03:00.526Z,16.65
2022-11-02T01:05:27.244Z,8.15
2022-11-02T01:07:53.602Z,15.55
2022-11-02T01:10:20.174Z,9.75
2022-11-02T01:12:46.724Z,17.15
2022-11-02T01:15:13.196Z,8.45
2022-11-02T01:17:40.155Z,12.45
2022-11-02T01:20:07.676Z,11.57
2022-11-02T01:22:34.132Z,10.75
2022-11-02T01:25:00.502Z,10.18
2022-11-02T01:27:26.935Z,13.38
2022-11-02T01:29:54.018Z,17.48
2022-11-02T01:32:20.439Z,13.00
2022-11-02T01:34:46.847Z,13.68
2022-11-02T01:37:15.129Z,17.35
2022-11-02T01:39:41.482Z,17.23
2022-11-02T01:42:22.722Z,10.70
2022-11-02T01:44:49.173Z,17.00
2022-11-02T01:47:35.550Z,10.32
2022-11-02T01:50:27.185Z,10.45
2022-11-02T01:52:54.183Z,8.85
2022-11-02T01:55:25.392Z,13.15
2022-11-02T02:00:23.558Z,6.50
2022-11-02T02:03:07.633Z,17.65
2022-11-02T02:05:43.787Z,18.70
2022-11-02T02:08:14.452Z,14.38
2022-11-02T02:10:40.875Z,12.50
2022-11-02T02:13:07.698Z,12.70
2022-11-02T02:15:57.547Z,12.63
2022-11-02T02:24:17.454Z,12.10
2022-11-02T02:27:14.306Z,14.55
2022-11-02T02:29:59.494Z,12.68
2022-11-02T02:32:37.650Z,11.88
2022-11-02T02:35:11.348Z,6.22
2022-11-02T02:37:46.315Z,10.88
2022-11-02T02:40:23.078Z,11.55
2022-11-02T02:43:13.377Z,22.58
2022-11-02T02:45:44.650Z,10.75
2022-11-02T02:48:18.423Z,14.60
2022-11-02T02:50:53.352Z,13.48
2022-11-02T02:53:27.524Z,6.70
2022-11-02T02:55:54.947Z,13.68
2022-11-02T02:58:25.942Z,15.48
2022-11-02T03:00:52.994Z,11.43
2022-11-02T03:03:26.940Z,13.00
2022-11-02T03:06:19.470Z,13.23
2022-11-02T03:09:16.561Z,13.38
2022-11-02T03:11:55.330Z,15.98
2022-11-02T03:14:47.771Z,12.15
2022-11-02T03:17:24.166Z,11.98
2022-11-02T03:20:02.395Z,11.50
2022-11-02T03:22:51.872Z,15.68
2022-11-02T03:25:30.002Z,10.15
2022-11-02T03:28:07.852Z,10.35
2022-11-02T03:30:42.127Z,10.35
2022-11-02T03:33:14.671Z,10.80
2022-11-02T03:35:44.898Z,12.45
2022-11-02T03:38:36.115Z,8.13
2022-11-02T03:41:04.919Z,14.18
2022-11-02T03:43:36.405Z,7.47
2022-11-02T03:46:05.960Z,13.07
2022-11-02T03:48:38.106Z,10.80
2022-11-02T03:51:08.865Z,11.95
2022-11-02T03:53:50.699Z,12.63
2022-11-02T03:56:41.913Z,10.60
2022-11-02T03:59:08.851Z,9.85
2022-11-02T04:01:44.450Z,13.25
2022-11-02T04:04:11.410Z,13.75
2022-11-02T04:06:41.230Z,10.65
2022-11-02T04:09:08.910Z,12.98
2022-11-02T04:11:54.989Z,10.60
2022-11-02T04:14:54.345Z,11.15
2022-11-02T04:17:39.581Z,10.95
2022-11-02T04:20:11.323Z,20.77
2022-11-02T04:22:56.871Z,12.48
2022-11-02T04:25:23.637Z,15.50
2022-11-02T04:27:56.219Z,12.77
2022-11-02T04:30:27.704Z,6.90
2022-11-02T04:33:14.055Z,12.18
2022-11-02T04:35:48.022Z,15.70
2022-11-02T04:38:33.516Z,11.80
2022-11-02T04:41:18.983Z,13.65
2022-11-02T04:43:48.301Z,14.98
2022-11-02T04:46:16.321Z,11.07
2022-11-02T04:48:43.897Z,11.52
2022-11-02T04:51:10.834Z,11.40
2022-11-02T04:53:38.579Z,14.48
2022-11-02T04:56:06.173Z,12.65
2022-11-02T04:58:33.365Z,11.70
2022-11-02T05:01:08.416Z,10.48
2022-11-02T05:03:36.106Z,14.52
2022-11-02T05:06:03.589Z,12.40
2022-11-02T05:08:30.733Z,10.88
2022-11-02T05:10:58.678Z,11.50
2022-11-02T05:13:26.756Z,13.07
2022-11-02T05:15:56.391Z,10.48
2022-11-02T05:18:23.143Z,12.57
2022-11-02T05:20:55.274Z,9.05
2022-11-02T05:23:24.793Z,19.48
2022-11-02T05:25:58.060Z,14.57
2022-11-02T05:28:26.310Z,11.85
2022-11-02T05:30:53.759Z,15.73
2022-11-02T05:33:20.441Z,11.32
2022-11-02T05:35:47.525Z,12.45
2022-11-02T05:38:14.180Z,18.17
2022-11-02T05:40:40.835Z,10.35
2022-11-02T05:43:10.166Z,13.55
2022-11-02T05:45:37.751Z,11.38
2022-11-02T05:48:06.638Z,20.60
2022-11-02T05:50:33.489Z,19.45
2022-11-02T05:53:02.467Z,11.95
2022-11-02T05:55:29.077Z,11.82
2022-11-02T05:57:56.024Z,9.63
2022-11-02T06:00:24.335Z,9.65
2022-11-02T06:02:59.397Z,15.40
2022-11-02T06:05:26.471Z,16.55
2022-11-02T06:07:53.340Z,18.30
2022-11-02T06:10:19.705Z,18.05
2022-11-02T06:12:46.120Z,13.35
2022-11-02T06:15:12.478Z,15.55
2022-11-02T06:17:40.217Z,12.52
2022-11-02T06:20:08.226Z,17.38
2022-11-02T06:22:41.781Z,11.45
2022-11-02T06:25:09.107Z,18.27
2022-11-02T06:27:35.608Z,13.07
2022-11-02T06:30:04.736Z,11.25
2022-11-02T06:32:31.091Z,11.70
2022-11-02T06:34:57.470Z,9.27
2022-11-02T06:37:23.858Z,6.53
2022-11-02T06:39:50.280Z,10.02
2022-11-02T06:42:16.772Z,11.02
2022-11-02T06:44:43.162Z,10.02
2022-11-02T06:47:09.531Z,8.25
2022-11-02T06:49:35.878Z,13.75
2022-11-02T06:52:02.288Z,13.98
2022-11-02T06:54:28.653Z,14.68
2022-11-02T06:56:55.022Z,9.07
2022-11-02T06:59:21.451Z,13.38
2022-11-02T07:01:52.458Z,18.65
2022-11-02T07:04:18.955Z,9.27
2022-11-02T07:06:45.303Z,9.60
2022-11-02T07:09:11.662Z,9.13
2022-11-02T07:11:38.023Z,8.43
2022-11-02T07:14:04.395Z,13.95
2022-11-02T07:16:30.763Z,9.25
2022-11-02T07:18:57.662Z,8.05
2022-11-02T07:21:24.031Z,8.68
2022-11-02T07:23:50.571Z,12.93
2022-11-02T07:26:16.955Z,4.70
2022-11-02T07:28:45.697Z,10.35
2022-11-02T07:31:12.034Z,9.05
2022-11-02T07:33:38.407Z,12.45
2022-11-02T07:36:05.386Z,9.63
2022-11-02T07:38:31.823Z,9.57
2022-11-02T07:40:58.177Z,13.75
2022-11-02T07:43:24.542Z,11.82
2022-11-02T07:45:58.578Z,15.13
2022-11-02T07:48:25.038Z,6.60
2022-11-02T07:50:51.463Z,10.88
2022-11-02T07:53:17.872Z,9.15
2022-11-02T07:55:44.250Z,7.45
2022-11-02T07:58:13.689Z,10.90
2022-11-02T08:00:43.311Z,12.77
2022-11-02T08:03:11.663Z,17.98
2022-11-02T08:05:40.411Z,7.65
2022-11-02T08:08:13.054Z,18.20
2022-11-02T08:10:40.659Z,11.95
2022-11-02T08:13:08.649Z,8.70
2022-11-02T08:15:35.038Z,15.18
2022-11-02T08:18:03.361Z,11.10
2022-11-02T08:20:31.028Z,9.63
2022-11-02T08:22:58.075Z,8.65
2022-11-02T08:25:25.542Z,13.05
2022-11-02T08:27:52.030Z,9.57
2022-11-02T08:30:18.615Z,11.18
2022-11-02T08:32:44.955Z,8.55
2022-11-02T08:35:11.317Z,8.18
2022-11-02T08:37:37.709Z,11.02
2022-11-02T08:40:04.446Z,13.15
2022-11-02T08:42:30.795Z,7.85
2022-11-02T08:44:57.210Z,10.10
2022-11-02T08:47:24.299Z,14.88
2022-11-02T08:49:51.716Z,11.05
2022-11-02T08:52:18.441Z,7.40
2022-11-02T08:54:44.795Z,10.25
2022-11-02T08:57:11.153Z,7.45
2022-11-02T08:59:37.543Z,11.52
2022-11-02T09:02:04.009Z,10.25
2022-11-02T09:04:30.553Z,8.38
2022-11-02T09:06:56.886Z,8.68
2022-11-02T09:09:23.284Z,10.48
2022-11-02T09:11:50.808Z,12.68
2022-11-02T09:14:17.264Z,8.50
2022-11-02T09:16:43.728Z,6.45
2022-11-02T09:19:10.156Z,8.07
2022-11-02T09:21:37.402Z,5.82
2022-11-02T09:24:04.057Z,8.25
2022-11-02T09:26:30.389Z,13.90
2022-11-02T09:28:56.811Z,8.73
2022-11-02T09:31:23.208Z,10.63
2022-11-02T09:33:49.581Z,13.30
2022-11-02T09:36:15.992Z,13.48
2022-11-02T09:38:42.440Z,14.90
2022-11-02T09:41:17.627Z,9.23
2022-11-02T09:43:58.610Z,13.48
2022-11-02T09:46:26.838Z,7.60
2022-11-02T09:49:03.252Z,7.50
2022-11-02T09:51:36.094Z,9.00
2022-11-02T09:54:27.053Z,5.18
2022-11-02T09:56:57.671Z,15.40
2022-11-02T09:59:26.839Z,9.68
2022-11-02T10:02:12.609Z,9.82
2022-11-02T10:05:05.987Z,11.82
2022-11-02T10:07:41.382Z,9.68
2022-11-02T10:10:21.119Z,12.52
2022-11-02T10:12:55.202Z,7.00
2022-11-02T10:15:27.340Z,10.10
2022-11-02T10:17:57.665Z,9.73
2022-11-02T10:20:34.530Z,12.13
2022-11-02T10:23:07.256Z,12.13
2022-11-02T10:25:36.046Z,5.68
2022-11-02T10:28:14.652Z,11.80
2022-11-02T10:30:43.878Z,9.85
2022-11-02T10:33:20.553Z,10.25
2022-11-02T10:39:00.572Z,13.93
2022-11-02T10:41:30.035Z,10.35
2022-11-02T10:44:24.258Z,9.32
2022-11-02T10:46:53.724Z,9.40
2022-11-02T10:49:41.559Z,9.05
2022-11-02T10:52:14.166Z,6.88
2022-11-02T10:54:41.004Z,12.13
2022-11-02T10:57:17.593Z,6.32
2022-11-02T10:59:44.377Z,8.40
2022-11-02T11:02:15.312Z,7.07
2022-11-02T11:07:24.558Z,16.00
2022-11-02T11:09:56.105Z,6.57
2022-11-02T11:12:31.751Z,9.57
2022-11-02T11:20:39.681Z,10.70
2022-11-02T11:23:15.451Z,6.63
2022-11-02T11:25:42.538Z,10.98
2022-11-02T11:28:42.294Z,8.05
2022-11-02T11:31:14.678Z,18.88
2022-11-02T11:33:44.986Z,12.65
2022-11-02T11:36:22.111Z,7.32
2022-11-02T11:38:50.281Z,13.15
2022-11-02T11:41:17.407Z,8.82
2022-11-02T11:43:46.897Z,8.35
2022-11-02T11:46:15.604Z,8.23
2022-11-02T11:48:46.353Z,9.98
2022-11-02T11:51:27.107Z,6.68
2022-11-02T11:54:23.995Z,9.15
2022-11-02T11:56:52.622Z,7.47
2022-11-02T11:59:25.102Z,6.70
2022-11-02T12:01:56.315Z,7.10
2022-11-02T12:04:37.387Z,11.93
2022-11-02T12:07:09.122Z,7.07
2022-11-02T12:10:00.899Z,10.35
2022-11-02T12:12:58.311Z,7.57
2022-11-02T12:15:40.214Z,6.10
2022-11-02T12:18:25.266Z,5.40
2022-11-02T12:21:03.737Z,10.75
2022-11-02T12:23:39.214Z,10.05
2022-11-02T12:26:23.261Z,11.52
2022-11-02T12:29:28.274Z,13.35
2022-11-02T12:32:01.034Z,7.05
2022-11-02T12:38:10.205Z,11.25
2022-11-02T12:40:54.824Z,10.27
2022-11-02T12:43:47.212Z,6.72
2022-11-02T12:46:26.158Z,9.93
2022-11-02T12:49:35.684Z,7.50
2022-11-02T12:52:21.274Z,6.85
2022-11-02T12:54:52.170Z,10.48
2022-11-02T12:57:23.615Z,10.25
2022-11-02T12:59:56.410Z,8.35
2022-11-02T13:02:27.161Z,8.25
2022-11-02T13:05:08.848Z,12.73
2022-11-02T13:07:44.122Z,9.00
2022-11-02T13:10:21.901Z,8.98
2022-11-02T13:12:54.789Z,12.80
2022-11-02T13:15:23.999Z,4.95
2022-11-02T13:17:55.699Z,7.30
2022-11-02T13:20:26.106Z,8.02
2022-11-02T13:22:57.935Z,6.85
2022-11-02T13:25:36.231Z,8.05
2022-11-02T13:28:11.517Z,9.30
2022-11-02T13:30:40.271Z,13.00
2022-11-02T13:33:30.813Z,6.55
2022-11-02T13:35:57.175Z,9.15
2022-11-02T13:38:32.615Z,7.47
2022-11-02T13:41:26.207Z,7.68
2022-11-02T13:44:03.863Z,7.22
2022-11-02T13:46:36.144Z,8.45
2022-11-02T13:49:14.552Z,5.90
2022-11-02T13:51:48.817Z,6.07
2022-11-02T13:54:26.746Z,9.05
2022-11-02T13:56:56.779Z,8.07
2022-11-02T13:59:30.650Z,7.07
2022-11-02T14:02:00.594Z,8.38
2022-11-02T14:04:30.646Z,6.60
2022-11-02T14:07:01.408Z,7.28
2022-11-02T14:09:38.696Z,15.20
2022-11-02T14:12:17.181Z,8.52
2022-11-02T14:14:44.979Z,8.32
2022-11-02T14:17:18.342Z,11.45
2022-11-02T14:19:47.544Z,11.35
2022-11-02T14:22:16.070Z,8.60
2022-11-02T14:24:42.567Z,8.75
2022-11-02T14:27:12.029Z,8.38
2022-11-02T14:29:47.683Z,6.90
2022-11-02T14:32:17.244Z,6.45
2022-11-02T14:34:54.139Z,8.43
2022-11-02T14:37:39.259Z,10.40
2022-11-02T14:40:46.358Z,8.93
2022-11-02T14:43:51.796Z,7.07
2022-11-02T14:46:39.457Z,9.85
2022-11-02T14:49:15.287Z,11.68
2022-11-02T14:51:42.655Z,14.43
2022-11-02T14:54:18.638Z,12.10
2022-11-02T14:57:03.018Z,11.80
2022-11-02T14:59:39.674Z,11.70
2022-11-02T15:02:12.538Z,12.13
2022-11-02T15:04:48.977Z,15.15
2022-11-02T15:07:22.466Z,12.65
2022-11-02T15:10:00.699Z,12.20
2022-11-02T15:12:41.334Z,12.55
2022-11-02T15:15:07.633Z,6.03
2022-11-02T15:17:36.895Z,12.88
2022-11-02T15:20:15.380Z,8.15
2022-11-02T15:22:47.503Z,8.63
2022-11-02T15:25:22.062Z,9.88
2022-11-02T15:27:51.355Z,7.75
2022-11-02T15:30:25.275Z,11.18
2022-11-02T15:33:02.113Z,15.68
2022-11-02T15:35:36.579Z,13.32
2022-11-02T15:38:25.784Z,9.10
2022-11-02T15:41:06.118Z,9.85
2022-11-02T15:43:56.239Z,13.60
2022-11-02T15:46:36.303Z,8.35
2022-11-02T15:49:17.959Z,10.45
2022-11-02T15:52:32.452Z,17.70
2022-11-02T15:55:25.419Z,15.73
2022-11-02T15:58:17.834Z,7.07
2022-11-02T16:01:03.980Z,11.82
2022-11-02T16:03:30.538Z,8.45
2022-11-02T16:06:03.238Z,12.32
2022-11-02T16:08:34.909Z,12.15
2022-11-02T16:11:19.817Z,9.55
2022-11-02T16:14:12.395Z,7.13
2022-11-02T16:16:46.472Z,11.32
2022-11-02T16:19:21.135Z,12.45
2022-11-02T16:21:49.586Z,7.32
2022-11-02T16:24:16.575Z,10.23
2022-11-02T16:26:44.775Z,9.15
2022-11-02T16:29:11.922Z,12.35
2022-11-02T16:31:40.761Z,15.60
2022-11-02T16:34:24.196Z,22.65
2022-11-02T16:36:51.018Z,17.63
2022-11-02T16:39:25.267Z,23.38
2022-11-02T16:41:55.704Z,16.17
2022-11-02T16:44:28.145Z,33.45
2022-11-02T16:47:06.841Z,16.23
2022-11-02T16:49:35.302Z,12.05
2022-11-02T16:52:21.175Z,9.95
2022-11-02T16:54:47.618Z,14.13
2022-11-02T16:57:42.463Z,15.68
2022-11-02T17:00:19.135Z,14.70
2022-11-02T17:02:46.247Z,18.83
2022-11-02T17:05:21.656Z,11.88
2022-11-02T17:07:58.584Z,8.60
2022-11-02T17:10:29.938Z,12.88
2022-11-02T17:12:57.447Z,13.77
2022-11-02T17:15:28.594Z,8.20
2022-11-02T17:20:35.347Z,16.92
2022-11-02T17:23:04.585Z,9.75
2022-11-02T17:25:40.471Z,7.15
2022-11-02T17:28:35.009Z,9.55
2022-11-02T17:31:01.922Z,12.30
2022-11-02T17:33:30.589Z,8.43
2022-11-02T17:36:05.228Z,14.98
2022-11-02T17:38:31.794Z,15.43
2022-11-02T17:40:59.789Z,13.23
2022-11-02T17:43:26.919Z,5.75
2022-11-02T17:45:55.692Z,7.47
2022-11-02T17:48:22.436Z,13.38
2022-11-02T17:50:52.523Z,11.57
2022-11-02T17:53:19.051Z,18.30
2022-11-02T17:55:45.477Z,24.55
2022-11-02T17:58:13.681Z,15.35
2022-11-02T18:00:40.277Z,24.08
2022-11-02T18:03:17.205Z,9.60
2022-11-02T18:05:46.679Z,12.10
2022-11-02T18:08:16.721Z,14.60
2022-11-02T18:10:45.897Z,15.93
2022-11-02T18:13:18.858Z,20.02
2022-11-02T18:15:45.514Z,19.17
2022-11-02T18:18:12.199Z,15.30
2022-11-02T18:20:41.866Z,12.73
2022-11-02T18:23:14.853Z,24.20
2022-11-02T18:25:41.327Z,23.92
2022-11-02T18:28:08.027Z,24.83
2022-11-02T18:30:34.610Z,23.48
2022-11-02T18:33:02.616Z,12.52
2022-11-02T18:35:28.992Z,17.10
2022-11-02T18:37:55.390Z,55.28
2022-11-02T18:40:22.013Z,24.35
2022-11-02T18:42:48.433Z,38.33
2022-11-02T18:45:16.058Z,96.47
2022-11-02T18:47:42.777Z,50.17
2022-11-02T18:50:11.597Z,24.08
2022-11-02T18:52:38.526Z,19.60
2022-11-02T18:55:05.447Z,12.65
2022-11-02T18:57:32.676Z,18.88
2022-11-02T19:00:00.588Z,27.83
2022-11-02T19:02:27.051Z,18.88
2022-11-02T19:04:53.630Z,14.68
2022-11-02T19:07:38.503Z,19.85
2022-11-02T19:10:05.396Z,20.27
2022-11-02T19:12:32.102Z,20.98
2022-11-02T19:14:59.108Z,18.17
2022-11-02T19:17:26.565Z,17.13
2022-11-02T19:19:53.421Z,17.20
2022-11-02T19:22:22.604Z,23.23
2022-11-02T19:24:49.363Z,24.00
2022-11-02T19:27:18.657Z,32.85
2022-11-02T19:29:45.379Z,36.33
2022-11-02T19:32:12.195Z,37.20
2022-11-02T19:34:38.943Z,37.45
2022-11-02T19:37:06.659Z,20.35
2022-11-02T19:39:33.066Z,27.45
2022-11-02T19:41:59.510Z,15.05
2022-11-02T19:44:26.344Z,17.42
2022-11-02T19:46:52.737Z,19.33
2022-11-02T19:49:19.111Z,25.90
2022-11-02T19:51:45.697Z,35.15
2022-11-02T19:54:12.210Z,17.17
2022-11-02T19:56:38.685Z,14.45
2022-11-02T19:59:06.000Z,14.45
2022-11-02T20:01:57.300Z,25.27
2022-11-02T20:06:50.402Z,10.20
2022-11-02T20:09:18.967Z,11.60
2022-11-02T20:11:46.916Z,21.17
2022-11-02T20:14:15.998Z,23.55
2022-11-02T20:16:42.663Z,22.65
2022-11-02T20:19:10.017Z,20.88
2022-11-02T20:21:41.522Z,22.33
2022-11-02T20:24:09.500Z,20.52
2022-11-02T20:26:38.069Z,30.73
2022-11-02T20:29:06.249Z,31.02
2022-11-02T20:31:35.782Z,27.63
2022-11-02T20:34:03.765Z,22.88
2022-11-02T20:36:30.201Z,42.80
2022-11-02T20:38:56.862Z,65.90
2022-11-02T20:41:24.266Z,82.97
2022-11-02T20:43:52.481Z,80.88
2022-11-02T20:46:50.050Z,88.03
2022-11-02T20:49:48.956Z,90.47
2022-11-02T20:52:03.022Z,60.08
2022-11-02T20:54:29.879Z,53.20
2022-11-02T20:56:56.866Z,54.67
2022-11-02T20:59:23.260Z,39.00
2022-11-02T21:01:49.807Z,28.38
2022-11-02T21:04:20.954Z,14.13
2022-11-02T21:06:51.142Z,14.55
2022-11-02T21:09:18.453Z,14.43
2022-11-02T21:12:03.508Z,13.07
2022-11-02T21:14:30.023Z,11.90
2022-11-02T21:16:56.403Z,12.18
2022-11-02T21:19:22.797Z,11.50
2022-11-02T21:21:49.168Z,27.95
2022-11-02T21:24:15.539Z,15.15
2022-11-02T21:26:43.150Z,16.38
2022-11-02T21:29:10.174Z,12.30
2022-11-02T21:31:37.287Z,15.77
2022-11-02T21:34:04.440Z,13.68
2022-11-02T21:36:31.547Z,16.48
2022-11-02T21:39:01.193Z,18.42
2022-11-02T21:41:29.596Z,17.10
2022-11-02T21:43:56.626Z,19.40
2022-11-02T21:46:25.712Z,22.33
2022-11-02T21:48:54.317Z,17.83
2022-11-02T21:51:22.363Z,17.02
2022-11-02T21:53:50.523Z,13.02
2022-11-02T21:56:23.397Z,20.67
2022-11-02T21:58:50.548Z,17.55
2022-11-02T22:01:41.565Z,18.27
2022-11-02T22:04:09.001Z,28.92
2022-11-02T22:06:37.693Z,22.42
2022-11-02T22:09:07.030Z,20.63
2022-11-02T22:11:34.405Z,20.55
2022-11-02T22:14:01.226Z,18.95
2022-11-02T22:16:31.759Z,26.60
2022-11-02T22:19:00.568Z,24.48
2022-11-02T22:21:29.599Z,22.30
2022-11-02T22:23:56.569Z,18.33
2022-11-02T22:26:25.511Z,20.77
2022-11-02T22:28:52.703Z,18.48
2022-11-02T22:31:25.031Z,17.70
2022-11-02T22:33:54.071Z,10.57
2022-11-02T22:36:23.237Z,19.60
2022-11-02T22:38:53.794Z,12.57
2022-11-02T22:41:26.097Z,12.85
2022-11-02T22:43:55.253Z,14.77
2022-11-02T22:46:22.525Z,13.18
2022-11-02T22:48:51.405Z,27.95
2022-11-02T22:51:19.072Z,10.85
2022-11-02T22:53:45.469Z,9.73
2022-11-02T22:56:13.461Z,12.45
2022-11-02T22:58:41.642Z,16.17
2022-11-02T23:01:10.562Z,14.57
2022-11-02T23:03:37.359Z,14.63
2022-11-02T23:06:06.469Z,15.20
2022-11-02T23:08:41.750Z,15.30
2022-11-02T23:11:21.619Z,23.02
2022-11-02T23:13:47.974Z,22.10
2022-11-02T23:16:21.987Z,22.42
2022-11-02T23:19:23.535Z,20.52
2022-11-02T23:22:28.946Z,17.98
2022-11-02T23:25:14.753Z,21.90
2022-11-02T23:28:00.755Z,16.17
2022-11-02T23:30:48.859Z,21.38
2022-11-02T23:33:15.910Z,21.30
2022-11-02T23:36:01.461Z,21.23
2022-11-02T23:38:48.387Z,18.10
2022-11-02T23:41:15.541Z,19.67
2022-11-02T23:43:41.940Z,14.98
2022-11-02T23:46:08.932Z,21.67
2022-11-02T23:48:35.442Z,18.25
2022-11-02T23:51:20.297Z,17.30
2022-11-02T23:54:05.241Z,16.88
2022-11-02T23:56:46.042Z,15.50
2022-11-02T23:59:14.213Z,19.60
